Terminal Aerodrome Forecast
Issued by NWS

Home | Current Version | Previous Version | Graphics & Text | Print | Product List | Glossary On
Versions: 1 2 3 4 5 6 7 8 9 10 11 12 13 14 15 16 17 18 19 20 21 22 23 24
000
FTUS43 KPAH 201700
TAFOWB
TAF
KOWB 201733Z 2018/2118 23008G15KT P6SM SCT030
     FM202200 21004KT P6SM SKC
     FM210330 24006KT P6SM SCT040 BKN120
     FM210800 26008KT P6SM VCSH BKN040 OVC090
     FM211400 29008KT P6SM SKC=

USA.gov is the U.S. government's official web portal to all federal, state and local government web resources and services.